sensor_id;sensor_type;location;lat;lon;timestamp;P1;P2;P0
46573;PMS5003;32299;53.366;-1.544;2022-10-16T00:02:25;4;1;
46573;PMS5003;32299;53.366;-1.544;2022-10-16T00:04:52;4;1;
46573;PMS5003;32299;53.366;-1.544;2022-10-16T00:07:19;0;0;
46573;PMS5003;32299;53.366;-1.544;2022-10-16T00:09:46;2;2;
46573;PMS5003;32299;53.366;-1.544;2022-10-16T00:12:13;4;1;
46573;PMS5003;32299;53.366;-1.544;2022-10-16T00:14:40;3;1;
46573;PMS5003;32299;53.366;-1.544;2022-10-16T00:17:07;8;1;
46573;PMS5003;32299;53.366;-1.544;2022-10-16T00:19:34;3;2;
46573;PMS5003;32299;53.366;-1.544;2022-10-16T00:22:01;4;1;
46573;PMS5003;32299;53.366;-1.544;2022-10-16T00:24:28;3;1;
46573;PMS5003;32299;53.366;-1.544;2022-10-16T00:26:55;5;2;
46573;PMS5003;32299;53.366;-1.544;2022-10-16T00:29:21;5;1;
46573;PMS5003;32299;53.366;-1.544;2022-10-16T00:31:48;2;0;
46573;PMS5003;32299;53.366;-1.544;2022-10-16T00:34:15;5;2;
46573;PMS5003;32299;53.366;-1.544;2022-10-16T00:36:42;2;1;
46573;PMS5003;32299;53.366;-1.544;2022-10-16T00:39:09;6;2;
46573;PMS5003;32299;53.366;-1.544;2022-10-16T00:41:36;5;4;
46573;PMS5003;32299;53.366;-1.544;2022-10-16T00:44:41;2;0;
46573;PMS5003;32299;53.366;-1.544;2022-10-16T00:47:13;3;1;
46573;PMS5003;32299;53.366;-1.544;2022-10-16T00:49:45;4;1;
46573;PMS5003;32299;53.366;-1.544;2022-10-16T00:52:13;2;1;
46573;PMS5003;32299;53.366;-1.544;2022-10-16T00:54:41;11;0;
46573;PMS5003;32299;53.366;-1.544;2022-10-16T00:57:08;4;2;
46573;PMS5003;32299;53.366;-1.544;2022-10-16T00:59:36;1;1;
46573;PMS5003;32299;53.366;-1.544;2022-10-16T01:02:07;4;2;
46573;PMS5003;32299;53.366;-1.544;2022-10-16T01:04:37;7;1;
46573;PMS5003;32299;53.366;-1.544;2022-10-16T01:07:09;2;1;
46573;PMS5003;32299;53.366;-1.544;2022-10-16T01:09:46;6;3;
46573;PMS5003;32299;53.366;-1.544;2022-10-16T01:12:23;1;1;
46573;PMS5003;32299;53.366;-1.544;2022-10-16T01:15:00;5;3;
46573;PMS5003;32299;53.366;-1.544;2022-10-16T01:17:37;4;3;
46573;PMS5003;32299;53.366;-1.544;2022-10-16T01:20:10;3;1;
46573;PMS5003;32299;53.366;-1.544;2022-10-16T01:22:44;3;1;
46573;PMS5003;32299;53.366;-1.544;2022-10-16T01:25:22;3;2;
46573;PMS5003;32299;53.366;-1.544;2022-10-16T01:27:58;6;2;
46573;PMS5003;32299;53.366;-1.544;2022-10-16T01:30:29;4;3;
46573;PMS5003;32299;53.366;-1.544;2022-10-16T01:32:59;3;2;
46573;PMS5003;32299;53.366;-1.544;2022-10-16T01:35:33;6;1;
46573;PMS5003;32299;53.366;-1.544;2022-10-16T01:38:06;2;1;
46573;PMS5003;32299;53.366;-1.544;2022-10-16T01:40:39;2;1;
46573;PMS5003;32299;53.366;-1.544;2022-10-16T01:43:12;2;1;
46573;PMS5003;32299;53.366;-1.544;2022-10-16T01:45:43;4;2;
46573;PMS5003;32299;53.366;-1.544;2022-10-16T01:48:12;2;1;
46573;PMS5003;32299;53.366;-1.544;2022-10-16T01:50:43;4;3;
46573;PMS5003;32299;53.366;-1.544;2022-10-16T01:53:24;1;1;
46573;PMS5003;32299;53.366;-1.544;2022-10-16T01:55:53;2;0;
46573;PMS5003;32299;53.366;-1.544;2022-10-16T01:58:21;0;0;
46573;PMS5003;32299;53.366;-1.544;2022-10-16T02:00:50;2;1;
46573;PMS5003;32299;53.366;-1.544;2022-10-16T02:03:21;2;1;
46573;PMS5003;32299;53.366;-1.544;2022-10-16T02:05:49;2;1;
46573;PMS5003;32299;53.366;-1.544;2022-10-16T02:08:20;4;1;
46573;PMS5003;32299;53.366;-1.544;2022-10-16T02:10:49;0;0;
46573;PMS5003;32299;53.366;-1.544;2022-10-16T02:13:18;2;0;
46573;PMS5003;32299;53.366;-1.544;2022-10-16T02:15:49;1;1;
46573;PMS5003;32299;53.366;-1.544;2022-10-16T02:18:16;1;1;
46573;PMS5003;32299;53.366;-1.544;2022-10-16T02:20:44;1;1;
46573;PMS5003;32299;53.366;-1.544;2022-10-16T02:23:19;2;0;
46573;PMS5003;32299;53.366;-1.544;2022-10-16T02:25:51;1;1;
46573;PMS5003;32299;53.366;-1.544;2022-10-16T02:28:22;0;0;
46573;PMS5003;32299;53.366;-1.544;2022-10-16T02:30:55;3;0;
46573;PMS5003;32299;53.366;-1.544;2022-10-16T02:33:25;3;0;
46573;PMS5003;32299;53.366;-1.544;2022-10-16T02:35:55;7;1;
46573;PMS5003;32299;53.366;-1.544;2022-10-16T02:38:23;0;0;
46573;PMS5003;32299;53.366;-1.544;2022-10-16T02:40:52;3;0;
46573;PMS5003;32299;53.366;-1.544;2022-10-16T02:43:19;3;1;
46573;PMS5003;32299;53.366;-1.544;2022-10-16T02:45:46;4;3;
46573;PMS5003;32299;53.366;-1.544;2022-10-16T02:48:13;1;1;
46573;PMS5003;32299;53.366;-1.544;2022-10-16T02:50:40;3;2;
46573;PMS5003;32299;53.366;-1.544;2022-10-16T02:53:07;6;1;
46573;PMS5003;32299;53.366;-1.544;2022-10-16T02:55:34;0;0;
46573;PMS5003;32299;53.366;-1.544;2022-10-16T02:58:01;2;0;
46573;PMS5003;32299;53.366;-1.544;2022-10-16T03:00:28;4;1;
46573;PMS5003;32299;53.366;-1.544;2022-10-16T03:02:55;4;1;
46573;PMS5003;32299;53.366;-1.544;2022-10-16T03:05:22;0;0;
46573;PMS5003;32299;53.366;-1.544;2022-10-16T03:07:49;3;1;
46573;PMS5003;32299;53.366;-1.544;2022-10-16T03:10:16;4;1;
46573;PMS5003;32299;53.366;-1.544;2022-10-16T03:12:43;0;0;
46573;PMS5003;32299;53.366;-1.544;2022-10-16T03:15:10;2;0;
46573;PMS5003;32299;53.366;-1.544;2022-10-16T03:17:37;1;1;
46573;PMS5003;32299;53.366;-1.544;2022-10-16T03:20:04;0;0;
46573;PMS5003;32299;53.366;-1.544;2022-10-16T03:22:32;2;1;
46573;PMS5003;32299;53.366;-1.544;2022-10-16T03:24:59;1;1;
46573;PMS5003;32299;53.366;-1.544;2022-10-16T03:27:25;3;2;
46573;PMS5003;32299;53.366;-1.544;2022-10-16T03:29:53;6;0;
46573;PMS5003;32299;53.366;-1.544;2022-10-16T03:32:19;4;1;
46573;PMS5003;32299;53.366;-1.544;2022-10-16T03:34:46;1;1;
46573;PMS5003;32299;53.366;-1.544;2022-10-16T03:37:13;6;2;
46573;PMS5003;32299;53.366;-1.544;2022-10-16T03:39:40;2;1;
46573;PMS5003;32299;53.366;-1.544;2022-10-16T03:42:07;4;1;
46573;PMS5003;32299;53.366;-1.544;2022-10-16T03:44:34;3;1;
46573;PMS5003;32299;53.366;-1.544;2022-10-16T03:47:01;1;1;
46573;PMS5003;32299;53.366;-1.544;2022-10-16T03:49:28;1;1;
46573;PMS5003;32299;53.366;-1.544;2022-10-16T03:51:55;3;1;
46573;PMS5003;32299;53.366;-1.544;2022-10-16T03:54:22;0;0;
46573;PMS5003;32299;53.366;-1.544;2022-10-16T03:56:49;4;1;
46573;PMS5003;32299;53.366;-1.544;2022-10-16T03:59:16;2;1;
46573;PMS5003;32299;53.366;-1.544;2022-10-16T04:01:43;4;1;
46573;PMS5003;32299;53.366;-1.544;2022-10-16T04:04:10;0;0;
46573;PMS5003;32299;53.366;-1.544;2022-10-16T04:06:37;2;2;
46573;PMS5003;32299;53.366;-1.544;2022-10-16T04:09:04;2;0;
46573;PMS5003;32299;53.366;-1.544;2022-10-16T04:11:31;2;1;
46573;PMS5003;32299;53.366;-1.544;2022-10-16T04:13:58;8;2;
46573;PMS5003;32299;53.366;-1.544;2022-10-16T04:16:25;4;1;
46573;PMS5003;32299;53.366;-1.544;2022-10-16T04:18:52;3;2;
46573;PMS5003;32299;53.366;-1.544;2022-10-16T04:21:19;2;1;
46573;PMS5003;32299;53.366;-1.544;2022-10-16T04:23:46;2;1;
46573;PMS5003;32299;53.366;-1.544;2022-10-16T04:26:13;1;1;
46573;PMS5003;32299;53.366;-1.544;2022-10-16T04:28:40;3;1;
46573;PMS5003;32299;53.366;-1.544;2022-10-16T04:31:07;1;1;
46573;PMS5003;32299;53.366;-1.544;2022-10-16T04:33:34;2;2;
46573;PMS5003;32299;53.366;-1.544;2022-10-16T04:36:01;1;1;
46573;PMS5003;32299;53.366;-1.544;2022-10-16T04:38:30;3;1;
46573;PMS5003;32299;53.366;-1.544;2022-10-16T04:40:57;3;1;
46573;PMS5003;32299;53.366;-1.544;2022-10-16T04:43:24;3;1;
46573;PMS5003;32299;53.366;-1.544;2022-10-16T04:45:51;3;1;
46573;PMS5003;32299;53.366;-1.544;2022-10-16T04:48:18;0;0;
46573;PMS5003;32299;53.366;-1.544;2022-10-16T04:50:45;0;0;
46573;PMS5003;32299;53.366;-1.544;2022-10-16T04:53:12;3;0;
46573;PMS5003;32299;53.366;-1.544;2022-10-16T04:55:40;1;1;
46573;PMS5003;32299;53.366;-1.544;2022-10-16T04:58:07;3;0;
46573;PMS5003;32299;53.366;-1.544;2022-10-16T05:00:34;2;1;
46573;PMS5003;32299;53.366;-1.544;2022-10-16T05:03:02;4;1;
46573;PMS5003;32299;53.366;-1.544;2022-10-16T05:05:29;1;1;
46573;PMS5003;32299;53.366;-1.544;2022-10-16T05:07:56;0;0;
46573;PMS5003;32299;53.366;-1.544;2022-10-16T05:10:23;2;1;
46573;PMS5003;32299;53.366;-1.544;2022-10-16T05:12:51;1;1;
46573;PMS5003;32299;53.366;-1.544;2022-10-16T05:15:18;3;0;
46573;PMS5003;32299;53.366;-1.544;2022-10-16T05:17:45;1;1;
46573;PMS5003;32299;53.366;-1.544;2022-10-16T05:20:12;1;0;
46573;PMS5003;32299;53.366;-1.544;2022-10-16T05:22:39;1;1;
46573;PMS5003;32299;53.366;-1.544;2022-10-16T05:25:06;0;0;
46573;PMS5003;32299;53.366;-1.544;2022-10-16T05:27:34;3;1;
46573;PMS5003;32299;53.366;-1.544;2022-10-16T05:30:01;0;0;
46573;PMS5003;32299;53.366;-1.544;2022-10-16T05:32:29;3;1;
46573;PMS5003;32299;53.366;-1.544;2022-10-16T05:34:56;3;1;
46573;PMS5003;32299;53.366;-1.544;2022-10-16T05:37:23;1;1;
46573;PMS5003;32299;53.366;-1.544;2022-10-16T05:39:50;0;0;
46573;PMS5003;32299;53.366;-1.544;2022-10-16T05:42:16;3;1;
46573;PMS5003;32299;53.366;-1.544;2022-10-16T05:44:44;5;0;
46573;PMS5003;32299;53.366;-1.544;2022-10-16T05:47:12;2;1;
46573;PMS5003;32299;53.366;-1.544;2022-10-16T05:49:39;0;0;
46573;PMS5003;32299;53.366;-1.544;2022-10-16T05:52:07;5;1;
46573;PMS5003;32299;53.366;-1.544;2022-10-16T05:54:34;2;1;
46573;PMS5003;32299;53.366;-1.544;2022-10-16T05:57:01;2;1;
46573;PMS5003;32299;53.366;-1.544;2022-10-16T05:59:28;1;1;
46573;PMS5003;32299;53.366;-1.544;2022-10-16T06:01:55;0;0;
46573;PMS5003;32299;53.366;-1.544;2022-10-16T06:04:22;1;1;
46573;PMS5003;32299;53.366;-1.544;2022-10-16T06:06:49;0;0;
46573;PMS5003;32299;53.366;-1.544;2022-10-16T06:09:16;1;0;
46573;PMS5003;32299;53.366;-1.544;2022-10-16T06:11:43;1;0;
46573;PMS5003;32299;53.366;-1.544;2022-10-16T06:14:10;0;0;
46573;PMS5003;32299;53.366;-1.544;2022-10-16T06:16:37;2;0;
46573;PMS5003;32299;53.366;-1.544;2022-10-16T06:19:05;2;0;
46573;PMS5003;32299;53.366;-1.544;2022-10-16T06:21:32;0;0;
46573;PMS5003;32299;53.366;-1.544;2022-10-16T06:23:59;2;2;
46573;PMS5003;32299;53.366;-1.544;2022-10-16T06:26:26;2;1;
46573;PMS5003;32299;53.366;-1.544;2022-10-16T06:28:54;2;0;
46573;PMS5003;32299;53.366;-1.544;2022-10-16T06:31:22;2;0;
46573;PMS5003;32299;53.366;-1.544;2022-10-16T06:33:50;2;0;
46573;PMS5003;32299;53.366;-1.544;2022-10-16T06:36:18;1;1;
46573;PMS5003;32299;53.366;-1.544;2022-10-16T06:38:46;0;0;
46573;PMS5003;32299;53.366;-1.544;2022-10-16T06:41:14;4;1;
46573;PMS5003;32299;53.366;-1.544;2022-10-16T06:43:43;0;0;
46573;PMS5003;32299;53.366;-1.544;2022-10-16T06:46:11;1;1;
46573;PMS5003;32299;53.366;-1.544;2022-10-16T06:48:39;3;0;
46573;PMS5003;32299;53.366;-1.544;2022-10-16T06:51:08;1;0;
46573;PMS5003;32299;53.366;-1.544;2022-10-16T06:53:36;2;1;
46573;PMS5003;32299;53.366;-1.544;2022-10-16T06:56:06;0;0;
46573;PMS5003;32299;53.366;-1.544;2022-10-16T06:58:35;2;1;
46573;PMS5003;32299;53.366;-1.544;2022-10-16T07:01:03;1;1;
46573;PMS5003;32299;53.366;-1.544;2022-10-16T07:03:31;3;0;
46573;PMS5003;32299;53.366;-1.544;2022-10-16T07:06:01;1;1;
46573;PMS5003;32299;53.366;-1.544;2022-10-16T07:08:30;0;0;
46573;PMS5003;32299;53.366;-1.544;2022-10-16T07:10:58;3;0;
46573;PMS5003;32299;53.366;-1.544;2022-10-16T07:13:26;3;1;
46573;PMS5003;32299;53.366;-1.544;2022-10-16T07:15:53;2;1;
46573;PMS5003;32299;53.366;-1.544;2022-10-16T07:18:20;2;1;
46573;PMS5003;32299;53.366;-1.544;2022-10-16T07:20:47;4;1;
46573;PMS5003;32299;53.366;-1.544;2022-10-16T07:23:15;2;1;
46573;PMS5003;32299;53.366;-1.544;2022-10-16T07:25:42;1;1;
46573;PMS5003;32299;53.366;-1.544;2022-10-16T07:28:09;3;1;
46573;PMS5003;32299;53.366;-1.544;2022-10-16T07:30:36;1;1;
46573;PMS5003;32299;53.366;-1.544;2022-10-16T07:33:03;2;1;
46573;PMS5003;32299;53.366;-1.544;2022-10-16T07:35:30;2;1;
46573;PMS5003;32299;53.366;-1.544;2022-10-16T07:37:57;2;1;
46573;PMS5003;32299;53.366;-1.544;2022-10-16T07:40:24;4;2;
46573;PMS5003;32299;53.366;-1.544;2022-10-16T07:42:51;1;1;
46573;PMS5003;32299;53.366;-1.544;2022-10-16T07:45:18;0;0;
46573;PMS5003;32299;53.366;-1.544;2022-10-16T07:47:45;2;1;
46573;PMS5003;32299;53.366;-1.544;2022-10-16T07:50:12;1;1;
46573;PMS5003;32299;53.366;-1.544;2022-10-16T07:52:39;1;0;
46573;PMS5003;32299;53.366;-1.544;2022-10-16T07:55:07;1;1;
46573;PMS5003;32299;53.366;-1.544;2022-10-16T07:57:35;2;1;
46573;PMS5003;32299;53.366;-1.544;2022-10-16T08:00:02;0;0;
46573;PMS5003;32299;53.366;-1.544;2022-10-16T08:02:29;2;0;
46573;PMS5003;32299;53.366;-1.544;2022-10-16T08:04:57;0;0;
46573;PMS5003;32299;53.366;-1.544;2022-10-16T08:07:24;2;2;
46573;PMS5003;32299;53.366;-1.544;2022-10-16T08:09:51;2;1;
46573;PMS5003;32299;53.366;-1.544;2022-10-16T08:12:18;2;2;
46573;PMS5003;32299;53.366;-1.544;2022-10-16T08:14:45;2;1;
46573;PMS5003;32299;53.366;-1.544;2022-10-16T08:17:13;2;1;
46573;PMS5003;32299;53.366;-1.544;2022-10-16T08:19:43;3;1;
46573;PMS5003;32299;53.366;-1.544;2022-10-16T08:22:12;2;1;
46573;PMS5003;32299;53.366;-1.544;2022-10-16T08:24:39;0;0;
46573;PMS5003;32299;53.366;-1.544;2022-10-16T08:27:06;0;0;
46573;PMS5003;32299;53.366;-1.544;2022-10-16T08:29:34;0;0;
46573;PMS5003;32299;53.366;-1.544;2022-10-16T08:32:00;4;2;
46573;PMS5003;32299;53.366;-1.544;2022-10-16T08:34:29;2;2;
46573;PMS5003;32299;53.366;-1.544;2022-10-16T08:36:56;1;1;
46573;PMS5003;32299;53.366;-1.544;2022-10-16T08:39:23;3;1;
46573;PMS5003;32299;53.366;-1.544;2022-10-16T08:41:57;2;1;
46573;PMS5003;32299;53.366;-1.544;2022-10-16T08:42:37;2;1;
46573;PMS5003;32299;53.366;-1.544;2022-10-16T08:45:23;2;1;
46573;PMS5003;32299;53.366;-1.544;2022-10-16T08:48:05;0;0;
46573;PMS5003;32299;53.366;-1.544;2022-10-16T08:50:40;6;1;
46573;PMS5003;32299;53.366;-1.544;2022-10-16T08:53:11;3;0;
46573;PMS5003;32299;53.366;-1.544;2022-10-16T08:55:43;2;0;
46573;PMS5003;32299;53.366;-1.544;2022-10-16T08:58:13;0;0;
46573;PMS5003;32299;53.366;-1.544;2022-10-16T09:00:43;3;3;
46573;PMS5003;32299;53.366;-1.544;2022-10-16T09:03:16;1;1;
46573;PMS5003;32299;53.366;-1.544;2022-10-16T09:06:02;1;1;
46573;PMS5003;32299;53.366;-1.544;2022-10-16T09:08:41;4;1;
46573;PMS5003;32299;53.366;-1.544;2022-10-16T09:11:20;0;0;
46573;PMS5003;32299;53.366;-1.544;2022-10-16T09:13:59;2;1;
46573;PMS5003;32299;53.366;-1.544;2022-10-16T09:16:34;2;1;
46573;PMS5003;32299;53.366;-1.544;2022-10-16T09:19:09;0;0;
46573;PMS5003;32299;53.366;-1.544;2022-10-16T09:21:45;1;1;
46573;PMS5003;32299;53.366;-1.544;2022-10-16T09:24:13;1;1;
46573;PMS5003;32299;53.366;-1.544;2022-10-16T09:26:41;0;0;
46573;PMS5003;32299;53.366;-1.544;2022-10-16T09:29:09;0;0;
46573;PMS5003;32299;53.366;-1.544;2022-10-16T09:31:38;2;1;
46573;PMS5003;32299;53.366;-1.544;2022-10-16T09:34:05;3;1;
46573;PMS5003;32299;53.366;-1.544;2022-10-16T09:36:49;1;1;
46573;PMS5003;32299;53.366;-1.544;2022-10-16T09:39:18;1;0;
46573;PMS5003;32299;53.366;-1.544;2022-10-16T09:41:45;0;0;
46573;PMS5003;32299;53.366;-1.544;2022-10-16T09:44:16;0;0;
46573;PMS5003;32299;53.366;-1.544;2022-10-16T09:46:47;2;1;
46573;PMS5003;32299;53.366;-1.544;2022-10-16T09:49:20;3;1;
46573;PMS5003;32299;53.366;-1.544;2022-10-16T09:51:48;2;1;
46573;PMS5003;32299;53.366;-1.544;2022-10-16T09:54:17;1;1;
46573;PMS5003;32299;53.366;-1.544;2022-10-16T09:56:45;7;3;
46573;PMS5003;32299;53.366;-1.544;2022-10-16T09:59:15;3;2;
46573;PMS5003;32299;53.366;-1.544;2022-10-16T10:01:44;2;0;
46573;PMS5003;32299;53.366;-1.544;2022-10-16T10:04:13;3;2;
46573;PMS5003;32299;53.366;-1.544;2022-10-16T10:06:42;1;0;
46573;PMS5003;32299;53.366;-1.544;2022-10-16T10:09:16;1;1;
46573;PMS5003;32299;53.366;-1.544;2022-10-16T10:11:48;1;1;
46573;PMS5003;32299;53.366;-1.544;2022-10-16T10:14:19;2;0;
46573;PMS5003;32299;53.366;-1.544;2022-10-16T10:16:49;0;0;
46573;PMS5003;32299;53.366;-1.544;2022-10-16T10:19:19;2;0;
46573;PMS5003;32299;53.366;-1.544;2022-10-16T10:21:47;1;0;
46573;PMS5003;32299;53.366;-1.544;2022-10-16T10:24:16;2;2;
46573;PMS5003;32299;53.366;-1.544;2022-10-16T10:26:47;0;0;
46573;PMS5003;32299;53.366;-1.544;2022-10-16T10:29:21;1;1;
46573;PMS5003;32299;53.366;-1.544;2022-10-16T10:32:00;3;1;
46573;PMS5003;32299;53.366;-1.544;2022-10-16T10:34:44;0;0;
46573;PMS5003;32299;53.366;-1.544;2022-10-16T10:37:23;4;0;
46573;PMS5003;32299;53.366;-1.544;2022-10-16T10:40:03;3;0;
46573;PMS5003;32299;53.366;-1.544;2022-10-16T10:42:36;2;1;
46573;PMS5003;32299;53.366;-1.544;2022-10-16T10:45:15;1;0;
46573;PMS5003;32299;53.366;-1.544;2022-10-16T10:47:48;1;0;
46573;PMS5003;32299;53.366;-1.544;2022-10-16T10:50:24;0;0;
46573;PMS5003;32299;53.366;-1.544;2022-10-16T10:52:59;2;1;
46573;PMS5003;32299;53.366;-1.544;2022-10-16T10:55:35;0;0;
46573;PMS5003;32299;53.366;-1.544;2022-10-16T10:58:14;11;1;
46573;PMS5003;32299;53.366;-1.544;2022-10-16T11:00:51;1;1;
46573;PMS5003;32299;53.366;-1.544;2022-10-16T11:03:31;1;1;
46573;PMS5003;32299;53.366;-1.544;2022-10-16T11:06:10;0;0;
46573;PMS5003;32299;53.366;-1.544;2022-10-16T11:08:43;0;0;
46573;PMS5003;32299;53.366;-1.544;2022-10-16T11:11:18;0;0;
46573;PMS5003;32299;53.366;-1.544;2022-10-16T11:13:51;0;0;
46573;PMS5003;32299;53.366;-1.544;2022-10-16T11:16:27;2;0;
46573;PMS5003;32299;53.366;-1.544;2022-10-16T11:18:59;0;0;
46573;PMS5003;32299;53.366;-1.544;2022-10-16T11:21:34;1;1;
46573;PMS5003;32299;53.366;-1.544;2022-10-16T11:24:10;2;0;
46573;PMS5003;32299;53.366;-1.544;2022-10-16T11:26:45;1;0;
46573;PMS5003;32299;53.366;-1.544;2022-10-16T11:29:16;1;0;
46573;PMS5003;32299;53.366;-1.544;2022-10-16T11:31:51;2;1;
46573;PMS5003;32299;53.366;-1.544;2022-10-16T11:34:24;12;1;
46573;PMS5003;32299;53.366;-1.544;2022-10-16T11:36:57;0;0;
46573;PMS5003;32299;53.366;-1.544;2022-10-16T11:39:30;3;1;
46573;PMS5003;32299;53.366;-1.544;2022-10-16T11:41:59;2;0;
46573;PMS5003;32299;53.366;-1.544;2022-10-16T11:44:35;0;0;
46573;PMS5003;32299;53.366;-1.544;2022-10-16T11:47:15;0;0;
46573;PMS5003;32299;53.366;-1.544;2022-10-16T11:49:52;0;0;
46573;PMS5003;32299;53.366;-1.544;2022-10-16T11:52:28;0;0;
46573;PMS5003;32299;53.366;-1.544;2022-10-16T11:55:04;0;0;
46573;PMS5003;32299;53.366;-1.544;2022-10-16T11:57:39;0;0;
46573;PMS5003;32299;53.366;-1.544;2022-10-16T12:00:15;0;0;
46573;PMS5003;32299;53.366;-1.544;2022-10-16T12:02:50;1;0;
46573;PMS5003;32299;53.366;-1.544;2022-10-16T12:05:28;2;0;
46573;PMS5003;32299;53.366;-1.544;2022-10-16T12:08:04;0;0;
46573;PMS5003;32299;53.366;-1.544;2022-10-16T12:10:35;0;0;
46573;PMS5003;32299;53.366;-1.544;2022-10-16T12:13:03;0;0;
46573;PMS5003;32299;53.366;-1.544;2022-10-16T12:15:31;2;0;
46573;PMS5003;32299;53.366;-1.544;2022-10-16T12:18:00;1;0;
46573;PMS5003;32299;53.366;-1.544;2022-10-16T12:20:28;0;0;
46573;PMS5003;32299;53.366;-1.544;2022-10-16T12:22:57;5;0;
46573;PMS5003;32299;53.366;-1.544;2022-10-16T12:25:27;0;0;
46573;PMS5003;32299;53.366;-1.544;2022-10-16T12:27:56;0;0;
46573;PMS5003;32299;53.366;-1.544;2022-10-16T12:30:26;0;0;
46573;PMS5003;32299;53.366;-1.544;2022-10-16T12:32:56;2;0;
46573;PMS5003;32299;53.366;-1.544;2022-10-16T12:35:26;3;2;
46573;PMS5003;32299;53.366;-1.544;2022-10-16T12:38:04;2;2;
46573;PMS5003;32299;53.366;-1.544;2022-10-16T12:40:34;0;0;
46573;PMS5003;32299;53.366;-1.544;2022-10-16T12:43:11;2;0;
46573;PMS5003;32299;53.366;-1.544;2022-10-16T12:45:58;1;0;
46573;PMS5003;32299;53.366;-1.544;2022-10-16T12:48:27;0;0;
46573;PMS5003;32299;53.366;-1.544;2022-10-16T12:50:54;0;0;
46573;PMS5003;32299;53.366;-1.544;2022-10-16T12:53:23;3;1;
46573;PMS5003;32299;53.366;-1.544;2022-10-16T12:55:53;2;0;
46573;PMS5003;32299;53.366;-1.544;2022-10-16T12:58:35;2;0;
46573;PMS5003;32299;53.366;-1.544;2022-10-16T13:01:18;0;0;
46573;PMS5003;32299;53.366;-1.544;2022-10-16T13:04:02;0;0;
46573;PMS5003;32299;53.366;-1.544;2022-10-16T13:07:18;2;1;
46573;PMS5003;32299;53.366;-1.544;2022-10-16T13:10:02;0;0;
46573;PMS5003;32299;53.366;-1.544;2022-10-16T13:12:45;0;0;
46573;PMS5003;32299;53.366;-1.544;2022-10-16T13:15:27;2;1;
46573;PMS5003;32299;53.366;-1.544;2022-10-16T13:18:09;2;1;
46573;PMS5003;32299;53.366;-1.544;2022-10-16T13:20:49;1;0;
46573;PMS5003;32299;53.366;-1.544;2022-10-16T13:23:24;1;1;
46573;PMS5003;32299;53.366;-1.544;2022-10-16T13:26:01;2;1;
46573;PMS5003;32299;53.366;-1.544;2022-10-16T13:28:40;5;2;
46573;PMS5003;32299;53.366;-1.544;2022-10-16T13:31:10;1;0;
46573;PMS5003;32299;53.366;-1.544;2022-10-16T13:33:42;2;1;
46573;PMS5003;32299;53.366;-1.544;2022-10-16T13:36:17;0;0;
46573;PMS5003;32299;53.366;-1.544;2022-10-16T13:38:46;2;0;
46573;PMS5003;32299;53.366;-1.544;2022-10-16T13:41:14;2;2;
46573;PMS5003;32299;53.366;-1.544;2022-10-16T13:43:42;7;3;
46573;PMS5003;32299;53.366;-1.544;2022-10-16T13:46:12;3;1;
46573;PMS5003;32299;53.366;-1.544;2022-10-16T13:48:40;3;3;
46573;PMS5003;32299;53.366;-1.544;2022-10-16T13:51:12;4;4;
46573;PMS5003;32299;53.366;-1.544;2022-10-16T13:53:42;2;2;
46573;PMS5003;32299;53.366;-1.544;2022-10-16T13:56:11;3;2;
46573;PMS5003;32299;53.366;-1.544;2022-10-16T13:58:40;3;1;
46573;PMS5003;32299;53.366;-1.544;2022-10-16T14:01:14;3;2;
46573;PMS5003;32299;53.366;-1.544;2022-10-16T14:03:44;1;0;
46573;PMS5003;32299;53.366;-1.544;2022-10-16T14:06:12;1;1;
46573;PMS5003;32299;53.366;-1.544;2022-10-16T14:08:42;2;0;
46573;PMS5003;32299;53.366;-1.544;2022-10-16T14:11:11;2;0;
46573;PMS5003;32299;53.366;-1.544;2022-10-16T14:13:40;0;0;
46573;PMS5003;32299;53.366;-1.544;2022-10-16T14:16:15;1;1;
46573;PMS5003;32299;53.366;-1.544;2022-10-16T14:18:45;0;0;
46573;PMS5003;32299;53.366;-1.544;2022-10-16T14:21:21;1;0;
46573;PMS5003;32299;53.366;-1.544;2022-10-16T14:23:48;4;1;
46573;PMS5003;32299;53.366;-1.544;2022-10-16T14:26:16;2;0;
46573;PMS5003;32299;53.366;-1.544;2022-10-16T14:28:45;3;1;
46573;PMS5003;32299;53.366;-1.544;2022-10-16T14:31:22;14;1;
46573;PMS5003;32299;53.366;-1.544;2022-10-16T14:33:53;1;1;
46573;PMS5003;32299;53.366;-1.544;2022-10-16T14:36:20;4;2;
46573;PMS5003;32299;53.366;-1.544;2022-10-16T14:38:49;1;1;
46573;PMS5003;32299;53.366;-1.544;2022-10-16T14:41:23;1;1;
46573;PMS5003;32299;53.366;-1.544;2022-10-16T14:43:51;1;1;
46573;PMS5003;32299;53.366;-1.544;2022-10-16T14:46:22;5;2;
46573;PMS5003;32299;53.366;-1.544;2022-10-16T14:48:58;1;1;
46573;PMS5003;32299;53.366;-1.544;2022-10-16T14:51:30;3;2;
46573;PMS5003;32299;53.366;-1.544;2022-10-16T14:53:57;2;1;
46573;PMS5003;32299;53.366;-1.544;2022-10-16T14:56:24;2;2;
46573;PMS5003;32299;53.366;-1.544;2022-10-16T14:58:55;0;0;
46573;PMS5003;32299;53.366;-1.544;2022-10-16T15:01:23;0;0;
46573;PMS5003;32299;53.366;-1.544;2022-10-16T15:03:50;2;2;
46573;PMS5003;32299;53.366;-1.544;2022-10-16T15:06:17;2;0;
46573;PMS5003;32299;53.366;-1.544;2022-10-16T15:08:44;1;0;
46573;PMS5003;32299;53.366;-1.544;2022-10-16T15:11:10;2;1;
46573;PMS5003;32299;53.366;-1.544;2022-10-16T15:13:40;4;1;
46573;PMS5003;32299;53.366;-1.544;2022-10-16T15:16:08;1;1;
46573;PMS5003;32299;53.366;-1.544;2022-10-16T15:18:38;0;0;
46573;PMS5003;32299;53.366;-1.544;2022-10-16T15:21:05;1;0;
46573;PMS5003;32299;53.366;-1.544;2022-10-16T15:23:32;1;0;
46573;PMS5003;32299;53.366;-1.544;2022-10-16T15:25:59;1;1;
46573;PMS5003;32299;53.366;-1.544;2022-10-16T15:28:27;0;0;
46573;PMS5003;32299;53.366;-1.544;2022-10-16T15:30:55;0;0;
46573;PMS5003;32299;53.366;-1.544;2022-10-16T15:33:24;2;2;
46573;PMS5003;32299;53.366;-1.544;2022-10-16T15:35:55;1;1;
46573;PMS5003;32299;53.366;-1.544;2022-10-16T15:38:22;3;1;
46573;PMS5003;32299;53.366;-1.544;2022-10-16T15:40:50;4;1;
46573;PMS5003;32299;53.366;-1.544;2022-10-16T15:43:17;0;0;
46573;PMS5003;32299;53.366;-1.544;2022-10-16T15:45:44;1;0;
46573;PMS5003;32299;53.366;-1.544;2022-10-16T15:48:26;1;1;
46573;PMS5003;32299;53.366;-1.544;2022-10-16T15:50:53;1;1;
46573;PMS5003;32299;53.366;-1.544;2022-10-16T15:53:21;3;1;
46573;PMS5003;32299;53.366;-1.544;2022-10-16T15:55:48;2;2;
46573;PMS5003;32299;53.366;-1.544;2022-10-16T15:58:15;2;2;
46573;PMS5003;32299;53.366;-1.544;2022-10-16T16:00:42;1;1;
46573;PMS5003;32299;53.366;-1.544;2022-10-16T16:03:10;2;2;
46573;PMS5003;32299;53.366;-1.544;2022-10-16T16:05:37;3;2;
46573;PMS5003;32299;53.366;-1.544;2022-10-16T16:08:05;1;1;
46573;PMS5003;32299;53.366;-1.544;2022-10-16T16:10:32;1;1;
46573;PMS5003;32299;53.366;-1.544;2022-10-16T16:12:59;3;2;
46573;PMS5003;32299;53.366;-1.544;2022-10-16T16:15:26;2;2;
46573;PMS5003;32299;53.366;-1.544;2022-10-16T16:17:54;4;2;
46573;PMS5003;32299;53.366;-1.544;2022-10-16T16:20:21;6;5;
46573;PMS5003;32299;53.366;-1.544;2022-10-16T16:22:48;7;6;
46573;PMS5003;32299;53.366;-1.544;2022-10-16T16:25:15;8;8;
46573;PMS5003;32299;53.366;-1.544;2022-10-16T16:27:42;9;7;
46573;PMS5003;32299;53.366;-1.544;2022-10-16T16:30:10;8;6;
46573;PMS5003;32299;53.366;-1.544;2022-10-16T16:32:38;11;8;
46573;PMS5003;32299;53.366;-1.544;2022-10-16T16:35:05;12;7;
46573;PMS5003;32299;53.366;-1.544;2022-10-16T16:37:32;12;10;
46573;PMS5003;32299;53.366;-1.544;2022-10-16T16:40:00;13;8;
46573;PMS5003;32299;53.366;-1.544;2022-10-16T16:42:27;12;6;
46573;PMS5003;32299;53.366;-1.544;2022-10-16T16:44:54;4;4;
46573;PMS5003;32299;53.366;-1.544;2022-10-16T16:47:21;5;5;
46573;PMS5003;32299;53.366;-1.544;2022-10-16T16:49:49;8;6;
46573;PMS5003;32299;53.366;-1.544;2022-10-16T16:52:16;4;3;